x

Middle Nomad (46004) Wave Buoy

2:00am - Fri 19th Sep 2014 All times are PDT. -7 hours from GMT.

  • Sig Wave height 15.7ft
  • Peak Period 12s
  • Wind
    22mph, 29mph gusts
  • Air Temp 62°f
  • Sea Pressure 1008.6mb
  • Middle Nomad
  • Middle Nomad

More Historic Weather Station data

Upgrade to MSW Pro to gain access to the past 30 days of data for over 8000 Wavebouys and Weather Stations around the globe.

Join Pro

Comparision Forecast

View Surf forecast
   
Fri 09/19 2:00am 15.5ft 12s 22 29 mph 1008.6mb 62f
1:00am 15ft 11s 25 29 mph 1007.6mb 62f
12:00am 16ft 12s 25 31 mph 1006.6mb 62f
Thu 09/18 11:00pm  -   -  27
mph
1005.6mb 62f
10:00pm 15.5ft 10s 29 36 mph 1004.9mb 61f
9:00pm 15.5ft 10s 27 34 mph 1004mb 62f
8:00pm  -   -  27
mph
1003mb 62f
7:00pm 15ft 10s 29 36 mph 1002mb 62f
6:00pm 13.5ft 9s 29 36 mph 1000.9mb 62f
5:00pm 14ft 10s 27 34 mph 1000.5mb 62f
4:00pm 12ft 8s 29 36 mph 999.6mb 62f
3:00pm 11ft 8s 29 36 mph 998.7mb 62f
2:00pm 10ft 9s 29 36 mph 998mb 63f
1:00pm 10.5ft 7s 27 36 mph 997.1mb 61f
12:00pm 10ft 8s 27 34 mph 996.3mb 63f
11:00am 9ft 9s 27 34 mph 995.6mb 64f
10:00am 9.5ft 8s 22 27 mph 995.5mb 64f
9:00am 9ft 8s 25 31 mph 995.2mb 63f
8:00am 9ft 8s 25 34 mph 995mb 63f
7:00am 8.5ft 8s 20 25 mph 995.4mb 63f
6:00am 9ft 8s 18 22 mph 995.8mb 63f
5:00am 9ft 7s 20 27 mph 996.4mb 63f
4:00am 9ft 7s 20 25 mph 996.8mb 62f
3:00am 8.5ft 6s 29 36 mph 997.1mb 61f
2:00am 7.5ft 6s 27 34 mph 998.3mb 61f
1:00am 6.5ft 5s 25 31 mph 999.3mb 60f
12:00am 6ft 18s 27 34 mph 1000.3mb 60f
Wed 09/17 11:00pm 5.5ft 18s 25 29 mph 1001.3mb 61f
10:00pm 5ft 18s 20 27 mph 1002.2mb 61f
9:00pm 5ft 18s 20 25 mph 1003.1mb 61f
8:00pm 5ft 18s 18 22 mph 1003.7mb 62f
7:00pm 5ft 18s 16 18 mph 1004.4mb 62f
6:00pm 5ft 9s 13 16 mph 1005.3mb 62f
5:00pm 5.5ft 18s 9 11 mph 1005.9mb 62f
4:00pm 5.5ft 18s 9 11 mph 1006.7mb 61f
3:00pm 6ft 10s 9 11 mph 1007mb 61f
2:00pm 6ft 18s 7 9 mph 1007.3mb 61f
1:00pm 6ft 10s 4 7 mph 1007.8mb 61f
12:00pm 6ft 18s 7 9 mph 1008mb 61f
11:00am 6ft 11s 9 11 mph 1008.2mb 61f
10:00am 6ft 11s 11 13 mph 1008.3mb 61f
9:00am 6ft 10s 11 13 mph 1008.3mb 62f
8:00am 5.5ft 11s 9 11 mph 1008.4mb 61f
7:00am 5.5ft 11s 9 11 mph 1008.4mb 61f
6:00am 6.5ft 20s 4 9 mph 1008.5mb 62f
5:00am 6ft 12s 4 7 mph 1008.8mb 61f
4:00am 6.5ft 12s 9
mph
1009.3mb 61f
3:00am 7ft 11s 9 11 mph 1009.9mb 61f
2:00am 7ft 11s 4 7 mph 1010.1mb 61f
1:00am 7ft 11s 4
mph
1010.1mb 61f
12:00am 7ft 10s 7 9 mph 1010.4mb 62f
Tue 09/16 11:00pm 7ft 12s 9 11 mph 1010.7mb 62f
10:00pm 7ft 12s 9 11 mph 1010.9mb 62f
9:00pm 7.5ft 12s 9 11 mph 1010.9mb 62f
8:00pm 6.5ft 13s 9 11 mph 1010.9mb 62f
7:00pm 6.5ft 13s 9 11 mph 1011.1mb 62f
6:00pm 6.5ft 12s 7 9 mph 1011.6mb 62f
5:00pm 7ft 12s 9 11 mph 1012.1mb 62f
4:00pm 7ft 12s 9
mph
1012.4mb 62f
3:00pm 7ft 12s 4 7 mph 1012.5mb 62f
2:00pm 7.5ft 14s 4 7 mph 1012.6mb 62f
1:00pm 7.5ft 14s 4 7 mph 1012.7mb 62f
12:00pm 8ft 11s 4 9 mph 1012.7mb 62f
11:00am 8ft 14s 4 9 mph 1012.8mb 62f
10:00am 9ft 14s 7 11 mph 1012.6mb 62f
9:00am 8.5ft 13s 7 9 mph 1012.6mb 62f
8:00am 8ft 12s 9 13 mph 1012.6mb 62f
7:00am 8.5ft 12s 13 16 mph 1012.4mb 60f
6:00am 8ft 13s 11 13 mph 1012.3mb 61f
5:00am 8ft 14s 7 9 mph 1012.7mb 62f
4:00am 7ft 13s 9 11 mph 1012.8mb 62f
3:00am 7.5ft 14s 9 11 mph 1012.8mb 62f
2:00am 7ft 14s 9 11 mph 1013.2mb 62f
1:00am 7.5ft 14s 9 11 mph 1013.3mb 62f
12:00am 7.5ft 14s 7 9 mph 1013.3mb 62f
Mon 09/15 11:00pm 7.5ft 14s 7 9 mph 1013.2mb 62f
10:00pm 8ft 14s 4 7 mph 1013.3mb 62f
9:00pm 9ft 13s 2
mph
1013.2mb 61f
8:00pm 9ft 14s 4 7 mph 1012.9mb 60f
7:00pm 9ft 14s 7 9 mph 1013mb 61f
6:00pm 9ft 14s 9 13 mph 1012.9mb 60f
5:00pm 8.5ft 14s 9
mph
1013.2mb 62f
4:00pm 7.5ft 11s 9
mph
1013.4mb 62f
3:00pm 7ft 12s 9 11 mph 1013.9mb 62f
2:00pm 6ft 14s 9
mph
1014.1mb 61f
1:00pm 6ft 12s 9 11 mph 1014.1mb 61f
12:00pm 5ft 12s 9 11 mph 1014.1mb 61f
11:00am 5ft 9s 9 11 mph 1014mb 61f